createdAt,value
2019-05-15T15:20:44.748Z,12.05
2019-05-15T15:23:22.591Z,13.48
2019-05-15T15:26:02.114Z,13.98
2019-05-15T15:28:34.069Z,12.65
2019-05-15T15:31:08.232Z,11.22
2019-05-15T15:33:48.593Z,12.43
2019-05-15T15:36:22.060Z,11.63
2019-05-15T15:39:03.825Z,12.63
2019-05-15T15:41:45.129Z,11.40
2019-05-15T15:44:17.992Z,13.05
2019-05-15T15:46:51.442Z,13.38
2019-05-15T15:49:24.928Z,11.05
2019-05-15T15:52:04.145Z,13.28
2019-05-15T15:54:53.467Z,13.28
2019-05-15T15:57:35.046Z,14.03
2019-05-15T16:00:18.298Z,11.83
2019-05-15T16:02:56.979Z,12.20
2019-05-15T16:05:29.674Z,11.38
2019-05-15T16:08:02.781Z,13.62
2019-05-15T16:10:37.743Z,15.00
2019-05-15T16:13:23.713Z,11.50
2019-05-15T16:15:57.964Z,13.13
2019-05-15T16:18:33.107Z,12.55
2019-05-15T16:21:08.180Z,14.50
2019-05-15T16:23:48.063Z,12.73
2019-05-15T16:26:20.937Z,13.38
2019-05-15T16:28:58.010Z,13.88
2019-05-15T16:31:39.540Z,13.13
2019-05-15T16:34:12.616Z,15.72
2019-05-15T16:36:58.479Z,15.10
2019-05-15T16:39:38.397Z,15.85
2019-05-15T16:42:11.291Z,13.68
2019-05-15T16:44:43.508Z,14.63
2019-05-15T16:47:19.561Z,13.00
2019-05-15T16:49:58.832Z,15.60
2019-05-15T16:52:35.211Z,13.28
2019-05-15T16:55:12.452Z,14.53
2019-05-15T16:57:52.794Z,15.32
2019-05-15T17:00:28.981Z,13.30
2019-05-15T17:03:13.726Z,17.05
2019-05-15T17:05:38.964Z,13.30
2019-05-15T17:08:19.079Z,15.45
2019-05-15T17:10:55.686Z,15.85
2019-05-15T17:13:41.542Z,15.90
2019-05-15T17:16:27.548Z,15.08
2019-05-15T17:19:12.814Z,14.83
2019-05-15T17:21:48.221Z,14.73
2019-05-15T17:24:27.754Z,15.43
2019-05-15T17:27:08.558Z,15.32
2019-05-15T17:29:40.029Z,14.00
2019-05-15T17:32:13.450Z,16.97
2019-05-15T17:34:53.947Z,15.60
2019-05-15T17:37:28.703Z,18.02
2019-05-15T17:40:05.052Z,14.83
2019-05-15T17:42:39.035Z,17.80
2019-05-15T17:45:21.031Z,18.02
2019-05-15T17:47:53.676Z,14.47
2019-05-15T17:50:28.323Z,18.30
2019-05-15T17:53:01.430Z,15.05
2019-05-15T17:55:38.408Z,17.48
2019-05-15T17:58:19.009Z,14.38
2019-05-15T18:00:51.932Z,16.48
2019-05-15T18:03:29.526Z,14.85
2019-05-15T18:06:10.141Z,16.10
2019-05-15T18:08:50.035Z,16.50
2019-05-15T18:11:23.581Z,15.23
2019-05-15T18:13:58.217Z,16.75
2019-05-15T18:16:30.824Z,13.85
2019-05-15T18:19:05.357Z,15.80
2019-05-15T18:21:45.771Z,14.58
2019-05-15T18:24:18.734Z,16.82
2019-05-15T18:26:52.364Z,17.17
2019-05-15T18:29:35.355Z,17.60
2019-05-15T18:32:09.118Z,17.27
2019-05-15T18:34:42.355Z,15.38
2019-05-15T18:37:33.928Z,18.15
2019-05-15T18:42:49.337Z,17.35
2019-05-15T18:45:21.049Z,17.02
2019-05-15T18:47:59.959Z,18.42
2019-05-15T18:50:32.581Z,13.95
2019-05-15T18:53:05.278Z,15.35
2019-05-15T18:55:38.561Z,18.85
2019-05-15T18:58:11.519Z,15.35
2019-05-15T19:00:44.724Z,18.20
2019-05-15T19:03:22.642Z,15.43
2019-05-15T19:05:58.420Z,16.45
2019-05-15T19:08:31.275Z,15.23
2019-05-15T19:11:05.094Z,18.73
2019-05-15T19:13:38.911Z,19.07
2019-05-15T19:16:11.565Z,15.48
2019-05-15T19:18:44.011Z,20.88
2019-05-15T19:21:20.130Z,16.42
2019-05-15T19:23:53.598Z,20.08
2019-05-15T19:26:28.798Z,16.27
2019-05-15T19:29:09.063Z,18.10
2019-05-15T19:31:49.217Z,18.80
2019-05-15T19:37:12.420Z,20.80
2019-05-15T19:39:47.843Z,16.20
2019-05-15T19:42:19.354Z,20.92
2019-05-15T19:44:52.680Z,17.30
2019-05-15T19:47:25.527Z,18.15
2019-05-15T19:50:08.949Z,18.05
2019-05-15T19:52:41.268Z,18.75
2019-05-15T19:55:14.036Z,24.92
2019-05-15T19:57:48.140Z,19.87
2019-05-15T20:00:21.295Z,27.98
2019-05-15T20:02:54.824Z,17.52
2019-05-15T20:05:29.052Z,31.12
2019-05-15T20:08:02.408Z,21.15
2019-05-15T20:10:35.253Z,34.05
2019-05-15T20:13:14.922Z,28.23
2019-05-15T20:15:49.445Z,26.48
2019-05-15T20:18:33.682Z,46.48
2019-05-15T20:21:08.833Z,23.55
2019-05-15T20:23:41.288Z,39.58
2019-05-15T20:26:13.933Z,28.42
2019-05-15T20:28:53.829Z,33.40
2019-05-15T20:31:28.432Z,24.37
2019-05-15T20:34:05.807Z,33.42
2019-05-15T20:36:38.754Z,27.13
2019-05-15T20:39:12.712Z,24.63
2019-05-15T20:41:50.153Z,31.33
